Mill Creek, California
Current Conditions -  °F | °C
As of 10:33 PM on Saturday 20 Dec 2014 (Local Time) from KRBL Reporting Station
Overcast Overcast  
Wind Chill: 54°   Ceiling: 1300
Heat Index: 54°   Visibility: 10mi
Dew Point: 51°   Wind: 15mph
Humidity: 90%   Direction: 160°SSE
Pressure: 30.23"   Gusts: NA
Location:  40.33°N, 121.52°W
Report Text: KRBL 210633Z AUTO 16013KT 10SM BKN013 OVC019 12/11 A3023 RMK AO2 T01220106
Loading
Personal Weather Stations






























Interactive Weather Map New forecast layout! Learn more

10-Day Weather Forecast

Advertisements
Track Severe Weather on mobile